createdAt,value
2018-11-13T00:00:28.733Z,9.60
2018-11-13T00:02:58.047Z,7.20
2018-11-13T00:05:26.966Z,8.50
2018-11-13T00:07:55.574Z,7.87
2018-11-13T00:10:24.915Z,9.20
2018-11-13T00:12:53.474Z,9.73
2018-11-13T00:15:22.167Z,10.17
2018-11-13T00:17:50.916Z,7.33
2018-11-13T00:20:19.898Z,15.87
2018-11-13T00:22:49.239Z,9.83
2018-11-13T00:25:19.646Z,7.37
2018-11-13T00:27:48.290Z,6.37
2018-11-13T00:30:19.861Z,11.13
2018-11-13T00:32:48.730Z,7.77
2018-11-13T00:35:18.142Z,9.20
2018-11-13T00:37:47.226Z,8.10
2018-11-13T00:40:17.364Z,11.30
2018-11-13T00:42:46.441Z,5.73
2018-11-13T00:45:14.948Z,5.23
2018-11-13T00:47:43.443Z,7.57
2018-11-13T00:50:15.197Z,13.20
2018-11-13T00:52:44.501Z,8.90
2018-11-13T00:55:13.353Z,6.93
2018-11-13T00:57:42.636Z,5.53
2018-11-13T01:00:14.198Z,6.27
2018-11-13T01:02:43.708Z,8.30
2018-11-13T01:05:14.417Z,7.80
2018-11-13T01:07:44.113Z,4.20
2018-11-13T01:10:14.547Z,5.07
2018-11-13T01:12:44.498Z,6.93
2018-11-13T01:15:14.493Z,6.70
2018-11-13T01:17:43.950Z,4.83
2018-11-13T01:20:12.930Z,4.10
2018-11-13T01:22:41.638Z,8.37
2018-11-13T01:25:11.171Z,10.60
2018-11-13T01:27:39.917Z,5.57
2018-11-13T01:30:10.003Z,5.47
2018-11-13T01:32:39.539Z,8.87
2018-11-13T01:35:11.859Z,5.90
2018-11-13T01:37:40.448Z,4.30
2018-11-13T01:40:13.460Z,6.60
2018-11-13T01:42:42.402Z,4.87
2018-11-13T01:45:12.596Z,8.93
2018-11-13T01:47:41.385Z,8.37
2018-11-13T01:50:10.683Z,8.20
2018-11-13T01:52:39.192Z,5.07
2018-11-13T01:55:09.957Z,5.20
2018-11-13T01:57:38.802Z,5.03
2018-11-13T02:00:15.572Z,4.17
2018-11-13T02:02:45.161Z,5.17
2018-11-13T02:05:13.757Z,5.77
2018-11-13T02:07:42.309Z,4.80
2018-11-13T02:10:10.873Z,6.87
2018-11-13T02:12:39.478Z,7.30
2018-11-13T02:15:08.787Z,7.23
2018-11-13T02:17:38.214Z,7.10
2018-11-13T02:20:09.394Z,5.47
2018-11-13T02:22:38.178Z,13.80
2018-11-13T02:25:08.547Z,16.87
2018-11-13T02:27:37.092Z,9.93
2018-11-13T02:30:06.989Z,11.70
2018-11-13T02:32:35.611Z,16.87
2018-11-13T02:35:04.433Z,10.67
2018-11-13T02:37:32.920Z,12.07
2018-11-13T02:40:01.539Z,10.37
2018-11-13T02:42:30.820Z,11.90
2018-11-13T02:44:59.444Z,12.10
2018-11-13T02:47:29.408Z,14.23
2018-11-13T02:49:58.534Z,12.80
2018-11-13T02:52:27.096Z,14.40
2018-11-13T02:54:55.825Z,14.40
2018-11-13T02:57:24.349Z,12.90
2018-11-13T02:59:52.924Z,13.73
2018-11-13T03:02:21.449Z,13.87
2018-11-13T03:04:50.165Z,14.10
2018-11-13T03:07:19.826Z,13.13
2018-11-13T03:09:48.964Z,16.10
2018-11-13T03:12:17.800Z,16.80
2018-11-13T03:14:46.353Z,11.53
2018-11-13T03:17:14.843Z,10.40
2018-11-13T03:19:43.373Z,11.10
2018-11-13T03:22:12.518Z,8.57
2018-11-13T03:24:41.527Z,7.67
2018-11-13T03:27:10.193Z,10.73
2018-11-13T03:29:39.381Z,7.53
2018-11-13T03:32:08.056Z,10.57
2018-11-13T03:34:36.758Z,7.87
2018-11-13T03:37:05.616Z,6.47
2018-11-13T03:39:34.110Z,8.87
2018-11-13T03:42:03.020Z,8.70
2018-11-13T03:44:31.607Z,7.60
2018-11-13T03:47:00.813Z,5.20
2018-11-13T03:49:29.525Z,4.83
2018-11-13T03:51:58.079Z,3.80
2018-11-13T03:54:26.780Z,4.73
2018-11-13T03:56:55.474Z,3.47
2018-11-13T03:59:24.161Z,2.90
2018-11-13T04:01:52.732Z,3.47
2018-11-13T04:04:21.994Z,2.60
2018-11-13T04:06:50.748Z,3.10
2018-11-13T04:09:19.265Z,3.03
2018-11-13T04:11:48.422Z,3.23
2018-11-13T04:14:16.957Z,3.27
2018-11-13T04:16:45.472Z,3.60
2018-11-13T04:19:13.958Z,3.27
2018-11-13T04:21:42.723Z,4.70
2018-11-13T04:24:11.758Z,4.17
2018-11-13T04:26:40.264Z,2.50
2018-11-13T04:29:08.814Z,2.03
2018-11-13T04:31:37.319Z,2.37
2018-11-13T04:34:06.570Z,2.20
2018-11-13T04:36:35.134Z,1.90
2018-11-13T04:39:04.613Z,2.23
2018-11-13T04:41:33.678Z,4.47
2018-11-13T04:44:02.276Z,2.93
2018-11-13T04:46:31.548Z,1.90
2018-11-13T04:49:00.064Z,5.10
2018-11-13T04:51:28.871Z,2.37
2018-11-13T04:53:57.662Z,1.77
2018-11-13T04:56:26.204Z,3.10
2018-11-13T04:58:54.828Z,5.63
2018-11-13T05:01:23.324Z,2.80
2018-11-13T05:03:52.594Z,2.50
2018-11-13T05:06:21.475Z,1.17
2018-11-13T05:08:50.027Z,6.80
2018-11-13T05:11:21.656Z,4.60
2018-11-13T05:13:50.290Z,1.50
2018-11-13T05:16:18.873Z,4.57
2018-11-13T05:18:47.410Z,1.40
2018-11-13T05:21:16.381Z,0.93
2018-11-13T05:23:44.953Z,1.83
2018-11-13T05:26:13.516Z,1.33
2018-11-13T05:28:42.317Z,1.00
2018-11-13T05:31:11.041Z,5.20
2018-11-13T05:33:39.556Z,1.93
2018-11-13T05:36:08.120Z,2.30
2018-11-13T05:38:37.698Z,3.43
2018-11-13T05:41:06.378Z,1.83
2018-11-13T05:43:35.613Z,1.00
2018-11-13T05:46:04.166Z,1.57
2018-11-13T05:48:33.048Z,1.00
2018-11-13T05:51:02.114Z,1.43
2018-11-13T05:53:30.731Z,5.43
2018-11-13T05:55:59.270Z,2.90
2018-11-13T05:58:27.791Z,1.00
2018-11-13T06:00:56.499Z,1.00
2018-11-13T06:03:24.996Z,1.20
2018-11-13T06:05:53.525Z,1.10
2018-11-13T06:08:22.101Z,1.20
2018-11-13T06:10:51.785Z,0.90
2018-11-13T06:13:20.296Z,0.90
2018-11-13T06:15:49.468Z,6.70
2018-11-13T06:18:18.260Z,1.10
2018-11-13T06:20:47.826Z,0.80
2018-11-13T06:23:16.321Z,2.90
2018-11-13T06:25:44.934Z,0.70
2018-11-13T06:28:13.532Z,0.70
2018-11-13T06:30:42.164Z,1.63
2018-11-13T06:33:10.685Z,1.93
2018-11-13T06:35:40.189Z,0.70
2018-11-13T06:38:08.709Z,1.63
2018-11-13T06:40:38.070Z,0.90
2018-11-13T06:43:06.935Z,0.70
2018-11-13T06:45:35.527Z,3.67
2018-11-13T06:48:04.190Z,0.70
2018-11-13T06:50:32.659Z,2.27
2018-11-13T06:53:01.224Z,0.70
2018-11-13T06:55:31.771Z,1.17
2018-11-13T06:58:00.529Z,1.77
2018-11-13T07:00:29.024Z,2.70
2018-11-13T07:02:57.637Z,6.50
2018-11-13T07:05:26.144Z,2.53
2018-11-13T07:07:54.850Z,5.58
2018-11-13T07:10:24.446Z,1.97
2018-11-13T07:12:53.848Z,2.20
2018-11-13T07:15:23.692Z,3.57
2018-11-13T07:17:53.603Z,1.10
2018-11-13T07:20:23.302Z,2.43
2018-11-13T07:22:52.068Z,1.97
2018-11-13T07:25:21.992Z,1.90
2018-11-13T07:27:50.819Z,2.12
2018-11-13T07:30:20.006Z,1.57
2018-11-13T07:32:49.140Z,0.80
2018-11-13T07:35:19.308Z,1.23
2018-11-13T07:37:49.793Z,1.17
2018-11-13T07:40:18.615Z,1.43
2018-11-13T07:42:47.828Z,1.10
2018-11-13T07:45:16.895Z,1.20
2018-11-13T07:47:49.011Z,1.10
2018-11-13T07:50:19.131Z,0.93
2018-11-13T07:52:48.384Z,1.37
2018-11-13T07:55:17.850Z,0.93
2018-11-13T07:57:47.039Z,1.70
2018-11-13T08:00:19.003Z,2.00
2018-11-13T08:02:49.092Z,4.20
2018-11-13T08:05:17.959Z,8.73
2018-11-13T08:07:46.700Z,2.80
2018-11-13T08:10:15.473Z,3.37
2018-11-13T08:12:44.207Z,2.00
2018-11-13T08:15:14.859Z,2.30
2018-11-13T08:17:44.275Z,3.50
2018-11-13T08:20:14.100Z,4.13
2018-11-13T08:22:43.400Z,1.63
2018-11-13T08:25:12.863Z,1.80
2018-11-13T08:27:42.162Z,8.03
2018-11-13T08:30:13.305Z,2.10
2018-11-13T08:32:42.014Z,4.17
2018-11-13T08:35:10.677Z,5.53
2018-11-13T08:37:39.270Z,5.27
2018-11-13T08:40:10.318Z,2.57
2018-11-13T08:42:38.887Z,2.50
2018-11-13T08:45:08.910Z,1.40
2018-11-13T08:47:37.707Z,1.83
2018-11-13T08:50:06.647Z,1.83
2018-11-13T08:52:35.266Z,2.00
2018-11-13T08:55:04.180Z,2.93
2018-11-13T08:57:34.179Z,3.23
2018-11-13T09:00:03.223Z,2.30
2018-11-13T09:02:31.721Z,2.63
2018-11-13T09:05:00.548Z,3.13
2018-11-13T09:07:29.100Z,2.90
2018-11-13T09:09:58.291Z,2.37
2018-11-13T09:12:26.939Z,3.07
2018-11-13T09:14:56.307Z,2.93
2018-11-13T09:17:24.914Z,3.70
2018-11-13T09:19:53.609Z,1.40
2018-11-13T09:22:22.177Z,3.27
2018-11-13T09:24:50.769Z,1.60
2018-11-13T09:27:19.366Z,1.20
2018-11-13T09:29:48.092Z,6.93
2018-11-13T09:32:16.597Z,2.97
2018-11-13T09:34:45.137Z,4.90
2018-11-13T09:37:13.809Z,1.90
2018-11-13T09:39:43.266Z,3.13
2018-11-13T09:42:12.064Z,6.60
2018-11-13T09:44:40.579Z,4.37
2018-11-13T09:47:09.138Z,2.50
2018-11-13T09:49:37.702Z,1.40
2018-11-13T09:52:06.476Z,5.60
2018-11-13T09:54:35.100Z,1.00
2018-11-13T09:57:03.656Z,6.43
2018-11-13T09:59:32.247Z,2.23
2018-11-13T10:02:01.143Z,4.67
2018-11-13T10:04:29.958Z,1.00
2018-11-13T10:06:57.970Z,6.27
2018-11-13T10:09:27.488Z,4.60
2018-11-13T10:11:56.036Z,1.50
2018-11-13T10:14:24.798Z,1.02
2018-11-13T10:16:53.610Z,0.80
2018-11-13T10:19:22.757Z,3.03
2018-11-13T10:21:51.670Z,2.80
2018-11-13T10:24:20.788Z,1.03
2018-11-13T10:26:49.394Z,1.00
2018-11-13T10:29:18.486Z,2.60
2018-11-13T10:31:47.797Z,1.10
2018-11-13T10:34:17.338Z,1.77
2018-11-13T10:36:46.303Z,0.87
2018-11-13T10:39:15.849Z,6.43
2018-11-13T10:41:44.958Z,5.50
2018-11-13T10:44:13.507Z,1.90
2018-11-13T10:46:42.117Z,2.07
2018-11-13T10:49:11.337Z,2.07
2018-11-13T10:51:39.724Z,3.33
2018-11-13T10:54:08.227Z,4.93
2018-11-13T10:56:37.637Z,2.43
2018-11-13T10:59:07.415Z,0.90
2018-11-13T11:01:41.329Z,0.80
2018-11-13T11:04:14.015Z,2.23
2018-11-13T11:06:42.521Z,1.00
2018-11-13T11:09:10.996Z,1.43
2018-11-13T11:11:40.371Z,1.20
2018-11-13T11:14:11.572Z,8.57
2018-11-13T11:16:43.691Z,0.80
2018-11-13T11:19:15.914Z,1.37
2018-11-13T11:21:44.813Z,1.43
2018-11-13T11:24:13.710Z,2.27
2018-11-13T11:26:43.062Z,0.70
2018-11-13T11:29:12.765Z,1.10
2018-11-13T11:31:41.573Z,2.40
2018-11-13T11:34:10.256Z,0.97
2018-11-13T11:36:40.600Z,0.70
2018-11-13T11:39:10.873Z,2.63
2018-11-13T11:41:39.651Z,1.90
2018-11-13T11:44:09.080Z,1.93
2018-11-13T11:46:38.097Z,2.20
2018-11-13T11:49:06.914Z,0.90
2018-11-13T11:51:37.042Z,0.70
2018-11-13T11:54:06.544Z,3.43
2018-11-13T11:56:35.255Z,2.40
2018-11-13T11:59:03.785Z,2.30
2018-11-13T12:01:32.417Z,1.43
2018-11-13T12:04:00.946Z,0.90
2018-11-13T12:06:29.599Z,1.33
2018-11-13T12:08:58.342Z,3.83
2018-11-13T12:11:26.892Z,1.30
2018-11-13T12:13:55.577Z,1.43
2018-11-13T12:16:25.273Z,3.33
2018-11-13T12:18:53.921Z,3.27
2018-11-13T12:21:22.479Z,1.40
2018-11-13T12:23:51.159Z,1.00
2018-11-13T12:26:20.755Z,0.80
2018-11-13T12:28:49.317Z,0.70
2018-11-13T12:31:17.816Z,1.20
2018-11-13T12:33:46.613Z,3.30
2018-11-13T12:36:15.204Z,2.47
2018-11-13T12:38:44.059Z,0.80
2018-11-13T12:41:13.890Z,3.67
2018-11-13T12:43:42.481Z,1.70
2018-11-13T12:46:33.111Z,1.17
2018-11-13T12:49:05.036Z,1.00
2018-11-13T12:51:40.226Z,3.87
2018-11-13T12:54:10.587Z,0.80
2018-11-13T12:56:39.963Z,2.83
2018-11-13T12:59:10.259Z,1.30
2018-11-13T13:01:38.765Z,2.80
2018-11-13T13:04:08.014Z,1.80
2018-11-13T13:06:38.885Z,1.30
2018-11-13T13:09:10.291Z,6.83
2018-11-13T13:11:38.827Z,2.23
2018-11-13T13:14:12.974Z,2.13
2018-11-13T13:16:41.543Z,0.87
2018-11-13T13:19:11.802Z,0.90
2018-11-13T13:21:42.576Z,4.10
2018-11-13T13:24:11.383Z,1.83
2018-11-13T13:26:39.964Z,1.90
2018-11-13T13:29:08.918Z,0.70
2018-11-13T13:31:39.168Z,1.50
2018-11-13T13:34:08.062Z,1.33
2018-11-13T13:36:36.755Z,1.83
2018-11-13T13:48:21.917Z,0.90
2018-11-13T13:50:51.295Z,2.80
2018-11-13T13:53:20.465Z,1.13
2018-11-13T13:55:49.910Z,0.80
2018-11-13T13:58:19.129Z,1.10
2018-11-13T14:00:47.949Z,3.87
2018-11-13T14:03:16.594Z,0.60
2018-11-13T14:05:45.885Z,3.37
2018-11-13T14:08:15.142Z,0.73
2018-11-13T14:10:43.771Z,2.53
2018-11-13T14:13:12.878Z,0.70
2018-11-13T14:15:41.708Z,2.10
2018-11-13T14:18:10.450Z,0.80
2018-11-13T14:20:39.074Z,5.53
2018-11-13T14:23:07.659Z,1.67
2018-11-13T14:25:36.191Z,1.33
2018-11-13T14:28:04.773Z,4.00
2018-11-13T14:30:34.846Z,0.70
2018-11-13T14:33:11.588Z,2.00
2018-11-13T14:35:41.661Z,1.23
2018-11-13T14:38:10.368Z,0.80
2018-11-13T14:40:40.250Z,0.90
2018-11-13T14:43:09.176Z,0.70
2018-11-13T14:45:37.760Z,0.73
2018-11-13T14:48:07.284Z,2.40
2018-11-13T14:50:36.734Z,0.97
2018-11-13T14:53:05.733Z,0.70
2018-11-13T14:55:37.172Z,2.03
2018-11-13T14:58:09.965Z,1.37
2018-11-13T15:00:40.927Z,1.30
2018-11-13T15:03:11.141Z,2.40
2018-11-13T15:05:39.811Z,4.50
2018-11-13T15:08:09.653Z,1.53
2018-11-13T15:10:48.755Z,0.70
2018-11-13T15:13:17.617Z,0.80
2018-11-13T15:15:47.397Z,2.33
2018-11-13T15:18:16.402Z,1.07
2018-11-13T15:20:45.802Z,1.10
2018-11-13T15:23:14.884Z,2.73
2018-11-13T15:25:43.488Z,2.30
2018-11-13T15:28:13.315Z,3.33
2018-11-13T15:30:45.681Z,7.10
2018-11-13T15:33:24.583Z,2.60
2018-11-13T15:35:53.337Z,1.47
2018-11-13T15:38:22.573Z,1.80
2018-11-13T15:40:51.313Z,0.70
2018-11-13T15:43:19.891Z,2.27
2018-11-13T15:45:48.562Z,1.87
2018-11-13T15:48:17.629Z,1.40
2018-11-13T15:50:46.342Z,2.50
2018-11-13T15:53:15.648Z,0.90
2018-11-13T15:55:44.204Z,1.20
2018-11-13T15:58:13.042Z,3.37
2018-11-13T16:00:42.563Z,2.80
2018-11-13T16:03:16.976Z,5.83
2018-11-13T16:05:46.987Z,7.23
2018-11-13T16:08:16.260Z,1.87
2018-11-13T16:10:44.938Z,2.40
2018-11-13T16:13:14.046Z,3.47
2018-11-13T16:15:43.606Z,2.60
2018-11-13T16:18:13.904Z,0.90
2018-11-13T16:20:42.620Z,11.80
2018-11-13T16:23:11.385Z,7.17
2018-11-13T16:25:41.214Z,2.13
2018-11-13T16:28:10.286Z,7.23
2018-11-13T16:30:40.235Z,3.50
2018-11-13T16:33:08.992Z,5.93
2018-11-13T16:35:37.738Z,8.00
2018-11-13T16:38:08.111Z,2.77
2018-11-13T16:40:36.696Z,3.57
2018-11-13T16:43:05.590Z,4.67
2018-11-13T16:45:35.793Z,2.20
2018-11-13T16:48:05.421Z,7.53
2018-11-13T16:50:36.225Z,10.72
2018-11-13T16:53:05.906Z,5.95
2018-11-13T16:55:40.651Z,6.73
2018-11-13T16:58:11.771Z,4.37
2018-11-13T17:00:40.501Z,3.50
2018-11-13T17:03:09.013Z,4.67
2018-11-13T17:05:38.520Z,8.43
2018-11-13T17:08:08.167Z,4.90
2018-11-13T17:10:39.367Z,6.43
2018-11-13T17:13:08.179Z,2.60
2018-11-13T17:15:36.977Z,3.87
2018-11-13T17:18:06.286Z,6.25
2018-11-13T17:20:35.223Z,6.70
2018-11-13T17:23:04.103Z,6.47
2018-11-13T17:25:35.235Z,4.97
2018-11-13T17:28:05.160Z,7.03
2018-11-13T17:30:35.790Z,8.10
2018-11-13T17:33:05.917Z,5.33
2018-11-13T17:35:34.448Z,3.58
2018-11-13T17:38:03.692Z,8.38
2018-11-13T17:40:33.813Z,4.33
2018-11-13T17:43:03.896Z,11.28
2018-11-13T17:45:37.434Z,2.75
2018-11-13T17:48:07.589Z,3.70
2018-11-13T17:50:38.192Z,6.65
2018-11-13T17:53:08.076Z,5.00
2018-11-13T17:55:37.596Z,2.85
2018-11-13T17:58:09.009Z,4.75
2018-11-13T18:00:40.816Z,4.92
2018-11-13T18:03:10.983Z,5.12
2018-11-13T18:05:40.939Z,9.18
2018-11-13T18:08:11.125Z,10.20
2018-11-13T18:10:41.371Z,3.60
2018-11-13T18:13:10.567Z,4.28
2018-11-13T18:15:41.938Z,5.95
2018-11-13T18:18:10.707Z,8.10
2018-11-13T18:20:40.315Z,6.55
2018-11-13T18:23:09.580Z,6.35
2018-11-13T18:25:38.329Z,6.40
2018-11-13T18:28:07.369Z,7.00
2018-11-13T18:30:37.272Z,4.05
2018-11-13T18:33:06.509Z,4.37
2018-11-13T18:35:36.367Z,6.70
2018-11-13T18:38:06.656Z,4.87
2018-11-13T18:40:35.570Z,3.12
2018-11-13T18:43:04.633Z,3.02
2018-11-13T18:45:34.682Z,5.62
2018-11-13T18:48:03.226Z,2.87
2018-11-13T18:50:33.212Z,4.03
2018-11-13T18:53:01.804Z,5.87
2018-11-13T18:55:31.094Z,4.45
2018-11-13T18:58:00.442Z,5.70
2018-11-13T19:00:30.984Z,5.00
2018-11-13T19:03:00.617Z,5.00
2018-11-13T19:05:29.299Z,7.08
2018-11-13T19:07:58.269Z,5.87
2018-11-13T19:10:33.421Z,6.08
2018-11-13T19:13:03.166Z,8.95
2018-11-13T19:15:33.347Z,8.30
2018-11-13T19:18:02.240Z,13.83
2018-11-13T19:20:36.565Z,3.77
2018-11-13T19:23:05.257Z,5.65
2018-11-13T19:25:34.865Z,13.38
2018-11-13T19:28:03.550Z,3.25
2018-11-13T19:30:32.234Z,3.95
2018-11-13T19:33:00.873Z,4.80
2018-11-13T19:35:29.531Z,7.50
2018-11-13T19:37:58.545Z,5.40
2018-11-13T19:40:29.462Z,8.55
2018-11-13T19:42:59.070Z,6.67
2018-11-13T19:45:28.365Z,6.55
2018-11-13T19:47:57.031Z,5.05
2018-11-13T19:50:27.172Z,8.78
2018-11-13T19:52:55.731Z,6.00
2018-11-13T19:55:25.223Z,6.15
2018-11-13T19:57:53.754Z,6.35
2018-11-13T20:00:30.087Z,9.00
2018-11-13T20:03:00.326Z,5.25
2018-11-13T20:05:29.666Z,5.22
2018-11-13T20:07:58.521Z,6.80
2018-11-13T20:10:28.656Z,7.28
2018-11-13T20:12:59.381Z,7.47
2018-11-13T20:15:29.859Z,8.15
2018-11-13T20:17:58.420Z,10.75
2018-11-13T20:20:28.152Z,5.72
2018-11-13T20:22:57.115Z,6.50
2018-11-13T20:25:27.995Z,7.35
2018-11-13T20:27:56.588Z,10.28
2018-11-13T20:30:34.746Z,7.53
2018-11-13T20:33:03.598Z,9.20
2018-11-13T20:35:38.116Z,9.90
2018-11-13T20:38:07.592Z,15.05
2018-11-13T20:40:38.151Z,10.80
2018-11-13T20:43:09.298Z,9.78
2018-11-13T20:45:38.102Z,8.95
2018-11-13T20:48:07.074Z,8.95
2018-11-13T20:50:35.888Z,7.03
2018-11-13T20:53:19.979Z,10.60
2018-11-13T20:55:57.721Z,8.20
2018-11-13T21:02:00.251Z,10.48
2018-11-13T21:04:48.968Z,8.63
2018-11-13T21:10:22.207Z,12.20
2018-11-13T21:12:54.568Z,12.93
2018-11-13T21:15:23.448Z,10.35
2018-11-13T21:17:56.389Z,11.57
2018-11-13T21:20:31.809Z,11.38
2018-11-13T21:23:20.405Z,12.68
2018-11-13T21:28:56.699Z,11.63
2018-11-13T21:31:25.689Z,10.90
2018-11-13T21:33:54.537Z,10.10
2018-11-13T21:36:24.211Z,13.68
2018-11-13T21:38:53.184Z,11.63
2018-11-13T21:41:38.801Z,10.95
2018-11-13T21:47:33.353Z,10.18
2018-11-13T21:50:19.828Z,9.08
2018-11-13T21:53:02.885Z,11.10
2018-11-13T21:55:32.479Z,11.48
2018-11-13T21:58:01.068Z,12.05
2018-11-13T22:00:31.721Z,10.70
2018-11-13T22:03:06.067Z,9.28
2018-11-13T22:05:35.235Z,9.25
2018-11-13T22:08:04.792Z,9.45
2018-11-13T22:10:33.445Z,12.25
2018-11-13T22:13:02.278Z,14.80
2018-11-13T22:15:31.463Z,12.13
2018-11-13T22:18:00.881Z,14.07
2018-11-13T22:20:28.983Z,12.60
2018-11-13T22:22:58.726Z,12.47
2018-11-13T22:25:27.886Z,13.18
2018-11-13T22:27:57.680Z,11.22
2018-11-13T22:30:28.636Z,14.10
2018-11-13T22:32:57.545Z,11.60
2018-11-13T22:35:26.173Z,9.93
2018-11-13T22:37:54.963Z,13.98
2018-11-13T22:40:25.843Z,13.88
2018-11-13T22:42:54.637Z,11.30
2018-11-13T22:45:28.598Z,12.23
2018-11-13T22:47:58.692Z,10.93
2018-11-13T22:50:32.113Z,12.43
2018-11-13T22:53:00.973Z,14.35
2018-11-13T22:55:29.852Z,13.53
2018-11-13T22:57:59.768Z,9.73
2018-11-13T23:00:39.009Z,13.00
2018-11-13T23:03:08.998Z,11.53
2018-11-13T23:05:37.669Z,14.70
2018-11-13T23:08:07.201Z,15.90
2018-11-13T23:10:35.744Z,13.80
2018-11-13T23:13:04.688Z,11.28
2018-11-13T23:15:36.029Z,13.03
2018-11-13T23:18:04.885Z,12.60
2018-11-13T23:20:33.390Z,14.05
2018-11-13T23:23:02.209Z,11.88
2018-11-13T23:25:31.970Z,12.82
2018-11-13T23:28:00.677Z,16.62
2018-11-13T23:30:29.497Z,12.60
2018-11-13T23:32:59.532Z,18.27
2018-11-13T23:35:28.422Z,15.40
2018-11-13T23:37:58.393Z,13.65
2018-11-13T23:40:27.853Z,15.32
2018-11-13T23:42:56.634Z,13.78
2018-11-13T23:45:26.686Z,8.78
2018-11-13T23:47:55.178Z,12.85
2018-11-13T23:50:23.978Z,11.38
2018-11-13T23:52:52.866Z,14.50
2018-11-13T23:55:21.472Z,12.70
2018-11-13T23:57:50.182Z,11.22
